KOGA/OGA METAR and TAF weather

Enter ICAO airport designator
Station Type Date Time Source
KOGA METAR 2022/12/08 12:55 UTC NOAA

KOGA 081255Z AUTO 00000KT 10SM SCT020 OVC110 M07/M09 A3005 RMK AO2 T10721086


Station Type Date Time Source
KOGA Decoded METAR 2022/12/08 12:55 UTC NOAA

Ogallala, Searle Field Airport, NE, United States (KOGA) 41-07-11N 101-46-08W
Dec 08, 2022 - 07:55 AM EST / 2022.12.08 1255 UTC
Wind: Calm:0
Visibility: 10 mile(s):0
Sky conditions: overcast
Temperature: 19.0 F (-7.2 C)
Dew Point: 16.5 F (-8.6 C)
Relative Humidity: 89%
Pressure (altimeter): 30.05 in. Hg (1017 hPa)
ob: KOGA 081255Z AUTO 00000KT 10SM SCT020 OVC110 M07/M09 A3005 RMK AO2 T10721086
cycle: 13

Station Type Date Time Source
KOGA TAF UTC NOAA

Error!

Example: see airport list